createdAt,value
2019-04-12T00:00:06.604Z,6.57
2019-04-12T00:02:37.944Z,8.03
2019-04-12T00:05:08.478Z,8.03
2019-04-12T00:07:39.274Z,7.67
2019-04-12T00:10:09.958Z,6.30
2019-04-12T00:12:40.126Z,7.00
2019-04-12T00:15:12.192Z,6.37
2019-04-12T00:17:44.243Z,5.63
2019-04-12T00:20:15.354Z,6.17
2019-04-12T00:22:46.420Z,4.83
2019-04-12T00:25:17.477Z,5.67
2019-04-12T00:27:48.893Z,4.80
2019-04-12T00:30:21.419Z,4.13
2019-04-12T00:32:52.423Z,4.97
2019-04-12T00:35:23.031Z,5.10
2019-04-12T00:37:55.734Z,4.93
2019-04-12T00:40:25.795Z,4.53
2019-04-12T00:42:56.558Z,4.60
2019-04-12T00:45:26.774Z,3.87
2019-04-12T00:47:56.972Z,4.37
2019-04-12T00:50:27.327Z,4.10
2019-04-12T00:52:57.573Z,4.00
2019-04-12T00:55:27.546Z,4.07
2019-04-12T00:57:58.069Z,3.97
2019-04-12T01:00:30.050Z,3.50
2019-04-12T01:03:01.767Z,4.17
2019-04-12T01:05:33.734Z,3.60
2019-04-12T01:08:05.113Z,4.00
2019-04-12T01:10:40.141Z,3.67
2019-04-12T01:13:11.079Z,4.13
2019-04-12T01:15:41.973Z,3.30
2019-04-12T01:18:12.663Z,4.00
2019-04-12T01:20:43.240Z,4.10
2019-04-12T01:23:13.612Z,3.90
2019-04-12T01:25:44.621Z,4.00
2019-04-12T01:28:17.727Z,3.70
2019-04-12T01:30:47.877Z,3.90
2019-04-12T01:33:17.826Z,3.80
2019-04-12T01:35:48.320Z,3.50
2019-04-12T01:38:19.262Z,3.97
2019-04-12T01:40:49.874Z,4.00
2019-04-12T01:43:20.451Z,3.47
2019-04-12T01:45:50.690Z,3.73
2019-04-12T01:48:20.929Z,3.40
2019-04-12T01:50:51.094Z,3.60
2019-04-12T01:53:21.277Z,3.60
2019-04-12T01:55:51.821Z,4.23
2019-04-12T01:58:22.641Z,3.73
2019-04-12T02:00:52.995Z,3.60
2019-04-12T02:03:23.271Z,4.30
2019-04-12T02:05:53.643Z,4.33
2019-04-12T02:08:23.542Z,3.90
2019-04-12T02:10:54.430Z,4.67
2019-04-12T02:13:25.027Z,3.93
2019-04-12T02:15:55.249Z,3.70
2019-04-12T02:18:25.409Z,4.10
2019-04-12T02:20:56.351Z,4.07
2019-04-12T02:23:26.639Z,3.83
2019-04-12T02:25:57.250Z,4.37
2019-04-12T02:28:30.647Z,4.20
2019-04-12T02:31:04.859Z,4.03
2019-04-12T02:33:35.316Z,3.53
2019-04-12T02:36:05.514Z,3.73
2019-04-12T02:38:35.729Z,3.47
2019-04-12T02:41:06.156Z,3.93
2019-04-12T02:43:36.145Z,4.43
2019-04-12T02:46:07.387Z,3.73
2019-04-12T02:48:55.456Z,3.90
2019-04-12T02:51:46.069Z,4.23
2019-04-12T02:54:25.294Z,3.63
2019-04-12T02:57:20.088Z,4.40
2019-04-12T02:59:51.269Z,4.10
2019-04-12T03:02:25.573Z,4.67
2019-04-12T03:04:56.396Z,3.70
2019-04-12T03:07:27.205Z,3.80
2019-04-12T03:10:00.083Z,3.67
2019-04-12T03:12:32.546Z,3.73
2019-04-12T03:15:05.121Z,4.53
2019-04-12T03:17:36.339Z,4.30
2019-04-12T03:20:07.756Z,3.63
2019-04-12T03:22:38.397Z,4.13
2019-04-12T03:25:09.282Z,4.13
2019-04-12T03:27:41.212Z,4.40
2019-04-12T03:30:11.981Z,4.43
2019-04-12T03:32:42.915Z,4.60
2019-04-12T03:35:13.053Z,4.47
2019-04-12T03:37:43.980Z,4.17
2019-04-12T03:40:14.314Z,4.70
2019-04-12T03:42:45.304Z,3.73
2019-04-12T03:45:54.527Z,4.30
2019-04-12T03:48:25.260Z,3.87
2019-04-12T03:50:55.367Z,3.93
2019-04-12T03:53:26.468Z,4.60
2019-04-12T03:56:07.887Z,4.90
2019-04-12T03:58:28.900Z,4.57
2019-04-12T04:00:59.005Z,4.60
2019-04-12T04:03:30.075Z,4.50
2019-04-12T04:06:00.170Z,4.40
2019-04-12T04:08:30.575Z,4.57
2019-04-12T04:11:00.618Z,4.93
2019-04-12T04:13:30.830Z,4.60
2019-04-12T04:16:03.076Z,4.40
2019-04-12T04:18:33.108Z,4.63
2019-04-12T04:21:10.847Z,5.23
2019-04-12T04:23:52.131Z,4.77
2019-04-12T04:26:39.960Z,4.93
2019-04-12T04:29:45.023Z,5.43
2019-04-12T04:32:32.195Z,4.83
2019-04-12T04:35:03.235Z,5.40
2019-04-12T04:37:33.646Z,4.80
2019-04-12T04:40:04.213Z,5.30
2019-04-12T04:42:34.335Z,5.53
2019-04-12T04:45:05.089Z,5.70
2019-04-12T04:47:35.713Z,8.40
2019-04-12T04:50:06.653Z,5.07
2019-04-12T04:52:37.105Z,6.23
2019-04-12T04:55:07.426Z,5.70
2019-04-12T04:57:37.867Z,5.73
2019-04-12T05:00:08.734Z,5.60
2019-04-12T05:02:38.853Z,5.70
2019-04-12T05:05:09.814Z,6.40
2019-04-12T05:07:39.865Z,6.40
2019-04-12T05:10:10.303Z,7.13
2019-04-12T05:12:40.659Z,6.83
2019-04-12T05:15:10.958Z,6.40
2019-04-12T05:17:41.202Z,6.27
2019-04-12T05:20:11.426Z,7.57
2019-04-12T05:22:43.747Z,6.27
2019-04-12T05:25:14.578Z,5.80
2019-04-12T05:27:44.783Z,5.50
2019-04-12T05:30:15.347Z,5.60
2019-04-12T05:32:45.808Z,5.67
2019-04-12T05:35:15.790Z,6.07
2019-04-12T05:37:45.875Z,6.27
2019-04-12T05:40:16.441Z,5.80
2019-04-12T05:42:46.300Z,5.90
2019-04-12T05:45:19.506Z,5.97
2019-04-12T05:48:04.683Z,6.77
2019-04-12T05:50:37.061Z,6.17
2019-04-12T05:53:07.174Z,6.20
2019-04-12T05:55:40.723Z,5.50
2019-04-12T05:58:29.619Z,5.80
2019-04-12T06:01:17.740Z,6.03
2019-04-12T06:03:48.325Z,5.27
2019-04-12T06:06:18.249Z,5.73
2019-04-12T06:08:48.221Z,6.23
2019-04-12T06:11:18.058Z,5.60
2019-04-12T06:13:49.205Z,5.60
2019-04-12T06:16:19.026Z,5.87
2019-04-12T06:18:49.561Z,5.80
2019-04-12T06:21:35.213Z,6.07
2019-04-12T06:24:05.122Z,5.80
2019-04-12T06:26:45.183Z,6.10
2019-04-12T06:29:15.164Z,6.07
2019-04-12T06:31:45.526Z,5.90
2019-04-12T06:34:15.416Z,6.03
2019-04-12T06:36:45.334Z,5.63
2019-04-12T06:39:15.419Z,6.37
2019-04-12T06:41:45.536Z,5.93
2019-04-12T06:44:15.365Z,5.93
2019-04-12T06:46:45.209Z,5.90
2019-04-12T06:49:15.409Z,6.50
2019-04-12T06:51:45.260Z,6.27
2019-04-12T06:54:15.546Z,6.40
2019-04-12T06:56:57.381Z,5.80
2019-04-12T06:59:27.439Z,5.90
2019-04-12T07:02:13.623Z,6.73
2019-04-12T07:04:46.994Z,6.70
2019-04-12T07:07:16.904Z,5.73
2019-04-12T07:09:47.076Z,5.90
2019-04-12T07:12:16.915Z,6.90
2019-04-12T07:14:46.776Z,6.97
2019-04-12T07:17:16.711Z,6.10
2019-04-12T07:19:46.861Z,6.43
2019-04-12T07:22:16.679Z,6.83
2019-04-12T07:24:46.521Z,7.00
2019-04-12T07:27:16.454Z,6.70
2019-04-12T07:29:46.361Z,6.73
2019-04-12T07:32:16.291Z,7.37
2019-04-12T07:34:46.404Z,7.90
2019-04-12T07:37:16.242Z,7.27
2019-04-12T07:39:46.096Z,8.03
2019-04-12T07:42:16.277Z,6.93
2019-04-12T07:44:46.430Z,8.63
2019-04-12T07:47:16.270Z,6.50
2019-04-12T07:49:46.171Z,7.20
2019-04-12T07:52:20.771Z,6.70
2019-04-12T07:55:06.051Z,6.70
2019-04-12T07:57:54.845Z,7.43
2019-04-12T08:00:40.848Z,7.20
2019-04-12T08:03:32.862Z,7.50
2019-04-12T08:06:18.631Z,9.00
2019-04-12T08:08:48.801Z,8.43
2019-04-12T08:11:18.682Z,8.00
2019-04-12T08:13:48.521Z,8.10
2019-04-12T08:16:18.366Z,8.10
2019-04-12T08:18:48.250Z,10.00
2019-04-12T08:21:18.399Z,9.77
2019-04-12T08:23:48.259Z,9.10
2019-04-12T08:26:18.129Z,8.07
2019-04-12T08:28:48.080Z,8.73
2019-04-12T08:31:18.349Z,8.87
2019-04-12T08:33:48.627Z,9.47
2019-04-12T08:36:18.460Z,9.17
2019-04-12T08:38:48.969Z,8.40
2019-04-12T08:41:18.808Z,9.50
2019-04-12T08:43:51.297Z,8.70
2019-04-12T08:46:20.265Z,8.50
2019-04-12T08:48:50.146Z,9.40
2019-04-12T08:51:23.186Z,8.90
2019-04-12T08:53:51.733Z,8.43
2019-04-12T08:56:21.966Z,8.40
2019-04-12T08:58:51.844Z,8.27
2019-04-12T09:01:21.758Z,7.90
2019-04-12T09:03:52.072Z,7.80
2019-04-12T09:06:22.275Z,8.20
2019-04-12T09:09:12.298Z,6.70
2019-04-12T09:11:43.376Z,6.70
2019-04-12T09:14:13.309Z,5.10
2019-04-12T09:16:43.364Z,5.33
2019-04-12T09:19:31.375Z,5.67
2019-04-12T09:22:23.681Z,4.93
2019-04-12T09:24:58.529Z,5.10
2019-04-12T09:27:28.446Z,5.47
2019-04-12T09:30:00.623Z,4.87
2019-04-12T09:32:30.015Z,4.97
2019-04-12T09:35:00.186Z,4.93
2019-04-12T09:37:30.030Z,5.07
2019-04-12T09:39:59.901Z,4.50
2019-04-12T09:42:29.751Z,4.40
2019-04-12T09:44:59.657Z,5.10
2019-04-12T09:47:29.878Z,5.47
2019-04-12T09:49:59.720Z,5.00
2019-04-12T09:52:29.549Z,4.20
2019-04-12T09:54:59.387Z,5.30
2019-04-12T09:57:29.561Z,5.20
2019-04-12T09:59:59.765Z,4.30
2019-04-12T10:02:29.676Z,4.67
2019-04-12T10:04:59.861Z,4.00
2019-04-12T10:07:29.712Z,3.43
2019-04-12T10:09:59.649Z,4.60
2019-04-12T10:12:29.497Z,3.43
2019-04-12T10:14:59.915Z,3.23
2019-04-12T10:17:30.061Z,3.70
2019-04-12T10:20:00.149Z,3.57
2019-04-12T10:22:30.287Z,2.73
2019-04-12T10:25:00.622Z,3.73
2019-04-12T10:27:30.491Z,3.50
2019-04-12T10:30:00.377Z,2.90
2019-04-12T10:32:30.251Z,2.93
2019-04-12T10:35:01.431Z,3.63
2019-04-12T10:37:31.428Z,3.83
2019-04-12T10:40:01.302Z,3.90
2019-04-12T10:42:31.379Z,3.20
2019-04-12T10:45:10.229Z,4.10
2019-04-12T10:47:46.031Z,3.03
2019-04-12T10:50:38.173Z,3.17
2019-04-12T10:53:24.287Z,3.20
2019-04-12T10:55:55.649Z,3.40
2019-04-12T10:58:25.816Z,3.90
2019-04-12T11:00:56.667Z,3.20
2019-04-12T11:03:26.767Z,3.60
2019-04-12T11:05:56.923Z,2.13
2019-04-12T11:08:26.814Z,3.70
2019-04-12T11:10:56.689Z,2.97
2019-04-12T11:13:27.190Z,2.50
2019-04-12T11:15:57.411Z,3.33
2019-04-12T11:18:27.351Z,2.30
2019-04-12T11:20:57.509Z,2.90
2019-04-12T11:23:27.718Z,3.53
2019-04-12T11:25:57.572Z,3.30
2019-04-12T11:28:27.407Z,3.20
2019-04-12T11:30:57.292Z,3.17
2019-04-12T11:33:27.556Z,2.80
2019-04-12T11:35:57.862Z,3.27
2019-04-12T11:38:28.103Z,2.87
2019-04-12T11:40:58.114Z,3.43
2019-04-12T11:43:28.200Z,3.10
2019-04-12T11:45:58.102Z,2.80
2019-04-12T11:48:27.967Z,2.73
2019-04-12T11:50:57.967Z,3.40
2019-04-12T11:53:28.162Z,2.40
2019-04-12T11:55:58.142Z,2.70
2019-04-12T11:58:46.965Z,2.70
2019-04-12T12:01:09.133Z,2.93
2019-04-12T12:03:58.849Z,2.77
2019-04-12T12:06:32.711Z,3.40
2019-04-12T12:09:27.243Z,3.03
2019-04-12T12:12:06.019Z,3.67
2019-04-12T12:14:45.607Z,3.70
2019-04-12T12:17:26.731Z,4.10
2019-04-12T12:19:57.429Z,3.93
2019-04-12T12:22:28.002Z,4.30
2019-04-12T12:24:58.071Z,4.30
2019-04-12T12:27:27.986Z,4.60
2019-04-12T12:29:58.011Z,4.80
2019-04-12T12:32:28.113Z,4.87
2019-04-12T12:34:58.042Z,5.10
2019-04-12T12:37:28.268Z,4.27
2019-04-12T12:39:58.216Z,4.43
2019-04-12T12:42:28.100Z,4.00
2019-04-12T12:44:58.589Z,4.43
2019-04-12T12:47:29.780Z,4.33
2019-04-12T12:49:59.774Z,4.80
2019-04-12T12:52:29.645Z,5.33
2019-04-12T12:54:59.520Z,4.33
2019-04-12T12:57:29.416Z,5.23
2019-04-12T12:59:59.851Z,5.47
2019-04-12T13:02:30.125Z,4.97
2019-04-12T13:05:00.496Z,6.17
2019-04-12T13:07:30.378Z,4.80
2019-04-12T13:10:03.484Z,4.23
2019-04-12T13:12:33.156Z,4.53
2019-04-12T13:15:03.035Z,4.70
2019-04-12T13:17:33.075Z,3.93
2019-04-12T13:20:04.173Z,4.70
2019-04-12T13:22:34.131Z,4.63
2019-04-12T13:25:04.336Z,4.53
2019-04-12T13:27:34.522Z,3.73
2019-04-12T13:30:13.563Z,4.57
2019-04-12T13:32:55.785Z,4.40
2019-04-12T13:35:47.614Z,4.40
2019-04-12T13:38:46.324Z,4.57
2019-04-12T13:41:16.345Z,4.23
2019-04-12T13:43:47.076Z,4.30
2019-04-12T13:46:17.146Z,4.63
2019-04-12T13:48:47.325Z,4.83
2019-04-12T13:51:17.148Z,4.50
2019-04-12T13:53:48.015Z,5.03
2019-04-12T13:56:18.491Z,4.47
2019-04-12T13:58:48.995Z,5.20
2019-04-12T14:01:18.864Z,5.77
2019-04-12T14:03:48.706Z,5.50
2019-04-12T14:06:18.643Z,5.40
2019-04-12T14:08:48.479Z,5.53
2019-04-12T14:11:18.371Z,5.60
2019-04-12T14:13:48.567Z,4.73
2019-04-12T14:16:18.396Z,6.10
2019-04-12T14:18:48.257Z,6.00
2019-04-12T14:21:18.300Z,6.13
2019-04-12T14:23:48.210Z,5.60
2019-04-12T14:26:18.319Z,4.87
2019-04-12T14:28:48.253Z,5.30
2019-04-12T14:31:23.133Z,6.20
2019-04-12T14:34:14.006Z,5.40
2019-04-12T14:37:05.636Z,4.97
2019-04-12T14:39:36.209Z,5.87
2019-04-12T14:42:06.222Z,3.93
2019-04-12T14:44:50.683Z,4.70
2019-04-12T14:47:33.622Z,4.63
2019-04-12T14:50:02.917Z,5.63
2019-04-12T14:52:32.776Z,5.10
2019-04-12T14:55:02.670Z,5.13
2019-04-12T14:57:32.549Z,5.40
2019-04-12T15:00:02.390Z,5.50
2019-04-12T15:02:32.228Z,5.40
2019-04-12T15:05:02.365Z,5.67
2019-04-12T15:07:32.646Z,5.40
2019-04-12T15:10:02.576Z,5.50
2019-04-12T15:16:20.373Z,5.47
2019-04-12T15:18:53.703Z,5.60
2019-04-12T15:21:23.741Z,5.07
2019-04-12T15:23:54.322Z,5.43
2019-04-12T15:26:24.243Z,4.80
2019-04-12T15:28:54.734Z,4.67
2019-04-12T15:31:25.179Z,4.70
2019-04-12T15:33:55.446Z,5.80
2019-04-12T15:36:25.750Z,5.80
2019-04-12T15:38:55.952Z,5.33
2019-04-12T15:41:26.053Z,5.90
2019-04-12T15:43:56.265Z,5.20
2019-04-12T15:46:26.446Z,5.57
2019-04-12T15:48:58.891Z,5.53
2019-04-12T15:51:29.054Z,6.40
2019-04-12T15:53:59.337Z,6.30
2019-04-12T15:56:29.575Z,5.77
2019-04-12T15:59:00.367Z,5.13
2019-04-12T16:01:30.715Z,5.60
2019-04-12T16:04:01.957Z,5.23
2019-04-12T16:06:32.731Z,6.53
2019-04-12T16:09:20.219Z,5.53
2019-04-12T16:12:48.465Z,6.00
2019-04-12T16:16:18.299Z,6.07
2019-04-12T16:18:48.861Z,5.87
2019-04-12T16:21:19.697Z,6.60
2019-04-12T16:23:50.324Z,6.00
2019-04-12T16:26:20.754Z,5.93
2019-04-12T16:29:13.456Z,6.03
2019-04-12T16:32:02.674Z,6.73
2019-04-12T16:34:50.320Z,6.10
2019-04-12T16:37:49.205Z,7.20
2019-04-12T16:40:20.351Z,5.70
2019-04-12T16:42:50.953Z,6.87
2019-04-12T16:45:21.504Z,6.47
2019-04-12T16:47:52.690Z,6.50
2019-04-12T16:50:23.278Z,6.40
2019-04-12T16:52:54.451Z,6.53
2019-04-12T16:55:24.492Z,6.07
2019-04-12T16:57:54.856Z,6.73
2019-04-12T17:00:39.371Z,8.50
2019-04-12T17:03:10.161Z,12.30
2019-04-12T17:05:40.691Z,7.40
2019-04-12T17:08:11.041Z,6.90
2019-04-12T17:10:42.051Z,8.60
2019-04-12T17:13:12.425Z,7.50
2019-04-12T17:15:42.910Z,8.03
2019-04-12T17:18:13.440Z,8.10
2019-04-12T17:20:43.464Z,7.83
2019-04-12T17:23:14.457Z,8.50
2019-04-12T17:25:44.998Z,7.40
2019-04-12T17:28:16.172Z,8.37
2019-04-12T17:30:46.126Z,7.03
2019-04-12T17:33:16.521Z,7.60
2019-04-12T17:35:46.821Z,9.70
2019-04-12T17:38:17.217Z,7.60
2019-04-12T17:40:49.108Z,7.67
2019-04-12T17:43:19.121Z,8.43
2019-04-12T17:45:49.560Z,8.33
2019-04-12T17:48:29.730Z,8.77
2019-04-12T17:51:00.058Z,8.13
2019-04-12T17:53:42.042Z,8.60
2019-04-12T17:56:26.595Z,8.40
2019-04-12T17:58:47.390Z,8.97
2019-04-12T18:01:42.395Z,11.17
2019-04-12T18:04:22.849Z,9.70
2019-04-12T18:06:53.078Z,8.57
2019-04-12T18:09:23.697Z,9.47
2019-04-12T18:11:54.032Z,10.00
2019-04-12T18:14:24.652Z,9.53
2019-04-12T18:16:54.559Z,9.47
2019-04-12T18:19:24.495Z,9.80
2019-04-12T18:21:55.030Z,9.10
2019-04-12T18:24:25.632Z,9.60
2019-04-12T18:26:56.597Z,9.10
2019-04-12T18:29:26.927Z,9.60
2019-04-12T18:31:57.133Z,10.10
2019-04-12T18:34:27.700Z,9.50
2019-04-12T18:36:57.656Z,8.93
2019-04-12T18:39:27.661Z,10.03
2019-04-12T18:41:57.887Z,10.17
2019-04-12T18:44:27.893Z,11.27
2019-04-12T18:46:57.903Z,10.70
2019-04-12T18:49:28.391Z,11.00
2019-04-12T18:51:58.953Z,11.10
2019-04-12T18:54:29.525Z,11.00
2019-04-12T18:57:00.218Z,11.17
2019-04-12T18:59:30.456Z,11.90
2019-04-12T19:02:00.593Z,13.13
2019-04-12T19:04:31.139Z,12.20
2019-04-12T19:07:01.383Z,12.37
2019-04-12T19:09:32.014Z,11.83
2019-04-12T19:12:01.947Z,13.83
2019-04-12T19:14:32.681Z,12.20
2019-04-12T19:17:03.102Z,12.87
2019-04-12T19:19:33.298Z,14.77
2019-04-12T19:22:03.259Z,14.40
2019-04-12T19:24:33.737Z,13.67
2019-04-12T19:27:03.963Z,13.30
2019-04-12T19:29:34.471Z,13.67
2019-04-12T19:32:42.215Z,13.63
2019-04-12T19:35:30.841Z,14.17
2019-04-12T19:38:16.953Z,12.43
2019-04-12T19:40:47.748Z,12.97
2019-04-12T19:43:17.655Z,13.27
2019-04-12T19:45:48.408Z,12.07
2019-04-12T19:48:18.411Z,13.63
2019-04-12T19:50:49.682Z,12.17
2019-04-12T19:53:19.901Z,13.47
2019-04-12T19:55:49.847Z,12.10
2019-04-12T19:58:20.474Z,12.80
2019-04-12T20:00:51.038Z,12.73
2019-04-12T20:03:21.943Z,13.17
2019-04-12T20:05:52.700Z,11.80
2019-04-12T20:08:22.910Z,12.00
2019-04-12T20:10:53.217Z,12.40
2019-04-12T20:13:23.848Z,12.70
2019-04-12T20:15:53.779Z,11.13
2019-04-12T20:18:23.805Z,12.67
2019-04-12T20:20:54.760Z,12.53
2019-04-12T20:23:25.333Z,12.97
2019-04-12T20:25:55.962Z,12.37
2019-04-12T20:28:26.690Z,12.00
2019-04-12T20:30:57.230Z,12.30
2019-04-12T20:33:27.392Z,11.93
2019-04-12T20:35:57.622Z,11.97
2019-04-12T20:38:27.897Z,13.10
2019-04-12T20:40:58.161Z,14.10
2019-04-12T20:43:28.140Z,13.20
2019-04-12T20:45:58.381Z,12.20
2019-04-12T20:48:29.057Z,13.30
2019-04-12T20:50:59.026Z,12.20
2019-04-12T20:53:29.277Z,13.93
2019-04-12T20:55:59.585Z,12.50
2019-04-12T20:58:29.566Z,12.20
2019-04-12T21:01:00.095Z,13.10
2019-04-12T21:03:30.798Z,13.40
2019-04-12T21:06:00.700Z,14.40
2019-04-12T21:08:31.295Z,14.17
2019-04-12T21:11:01.563Z,12.77
2019-04-12T21:13:31.546Z,13.50
2019-04-12T21:16:01.892Z,13.60
2019-04-12T21:18:32.321Z,13.63
2019-04-12T21:21:03.093Z,13.67
2019-04-12T21:23:33.343Z,12.57
2019-04-12T21:26:03.958Z,12.40
2019-04-12T21:28:34.188Z,13.73
2019-04-12T21:31:04.424Z,12.40
2019-04-12T21:33:35.229Z,13.93
2019-04-12T21:36:05.773Z,12.90
2019-04-12T21:38:36.566Z,13.33
2019-04-12T21:41:07.362Z,13.40
2019-04-12T21:43:37.507Z,11.77
2019-04-12T21:46:18.849Z,12.73
2019-04-12T21:48:39.777Z,13.33
2019-04-12T21:51:09.991Z,13.33
2019-04-12T21:53:40.805Z,12.90
2019-04-12T21:56:11.460Z,13.60
2019-04-12T21:58:42.475Z,13.80
2019-04-12T22:01:16.964Z,14.33
2019-04-12T22:03:47.830Z,13.70
2019-04-12T22:06:18.174Z,12.33
2019-04-12T22:08:48.425Z,13.87
2019-04-12T22:11:19.020Z,14.20
2019-04-12T22:13:49.852Z,13.43
2019-04-12T22:16:20.106Z,14.27
2019-04-12T22:18:50.761Z,14.90
2019-04-12T22:21:21.007Z,14.70
2019-04-12T22:23:51.244Z,14.13
2019-04-12T22:26:21.795Z,14.93
2019-04-12T22:28:52.120Z,14.33
2019-04-12T22:31:24.790Z,15.03
2019-04-12T22:33:55.050Z,14.60
2019-04-12T22:36:24.989Z,14.50
2019-04-12T22:38:55.451Z,15.47
2019-04-12T22:41:25.525Z,15.13
2019-04-12T22:43:55.786Z,14.90
2019-04-12T22:46:25.767Z,14.17
2019-04-12T22:48:56.349Z,14.03
2019-04-12T22:51:26.266Z,16.63
2019-04-12T22:53:57.008Z,14.57
2019-04-12T22:56:27.317Z,15.80
2019-04-12T22:58:57.960Z,13.40
2019-04-12T23:01:28.485Z,15.60
2019-04-12T23:04:05.145Z,14.77
2019-04-12T23:06:30.567Z,16.30
2019-04-12T23:09:01.198Z,15.10
2019-04-12T23:11:31.145Z,14.93
2019-04-12T23:14:01.780Z,15.87
2019-04-12T23:16:32.646Z,16.87
2019-04-12T23:19:02.944Z,14.53
2019-04-12T23:21:33.545Z,16.13
2019-04-12T23:24:03.480Z,17.60
2019-04-12T23:26:34.045Z,15.20
2019-04-12T23:29:04.334Z,14.73
2019-04-12T23:31:38.786Z,14.80
2019-04-12T23:34:17.834Z,14.70
2019-04-12T23:36:48.066Z,16.20
2019-04-12T23:39:17.993Z,16.10
2019-04-12T23:41:48.323Z,17.03
2019-04-12T23:44:18.564Z,15.53
2019-04-12T23:46:49.158Z,15.67
2019-04-12T23:49:19.354Z,14.50
2019-04-12T23:51:49.601Z,16.30
2019-04-12T23:54:19.822Z,14.77
2019-04-12T23:56:50.667Z,16.33
2019-04-12T23:59:20.841Z,21.40
